Denver, Colorado
Current Conditions -  °F | °C
As of 2:58 AM on Sunday 21 Dec 2014 (Local Time) from KBKF Reporting Station
Scattered Clouds Scattered Clouds  
Wind Chill: -7°   Ceiling: Unl
Heat Index: -2°   Visibility: 10mi
Dew Point: -8°   Wind: 10mph
Humidity: 67%   Direction: 180°S
Pressure: 29.84"   Gusts: NA
Location:  39.74°N, 104.99°W
Report Text: KBKF 210958Z 18009KT 10SM FEW120 SCT200 M02/M07 A2984 RMK AO2A SLP094 T10211075
Loading
Personal Weather Stations






























Interactive Weather Map New forecast layout! Learn more

10-Day Weather Forecast

Advertisements
Track Severe Weather on mobile